Time;durP1;ratioP1;P1;durP2;ratioP2;P2;SDS_P1;SDS_P2;PMS_P1;PMS_P2;Temp;Humidity;BMP_temperature;BMP_pressure;BME280_temperature;BME280_humidity;BME280_pressure;Samples;Min_cycle;Max_cycle;Signal;HPM_P1;HPM_P2
2024/04/11 00:02:11;;;;;;;2.93;1.50;;;6.90;99.90;;;;;;5451167;26;20325;-80
2024/04/11 00:04:36;;;;;;;4.00;1.50;;;6.30;99.90;;;;;;5445535;26;20360;-79
2024/04/11 00:07:02;;;;;;;2.87;1.50;;;5.90;99.90;;;;;;5448331;26;20329;-80
2024/04/11 00:09:27;;;;;;;2.72;1.60;;;6.10;99.90;;;;;;5451335;26;20338;-80
2024/04/11 00:11:53;;;;;;;4.93;1.60;;;6.20;99.90;;;;;;5450937;26;20321;-80
2024/04/11 00:14:19;;;;;;;2.58;1.30;;;6.10;99.90;;;;;;5448721;26;20359;-80
2024/04/11 00:16:44;;;;;;;4.20;1.60;;;6.10;99.90;;;;;;5450812;26;20396;-80
2024/04/11 00:19:10;;;;;;;2.47;1.45;;;6.10;99.90;;;;;;5451858;26;20336;-80
2024/04/11 00:21:35;;;;;;;2.60;1.77;;;6.10;99.90;;;;;;5451721;26;20356;-81
2024/04/11 00:24:01;;;;;;;4.60;1.77;;;6.10;99.90;;;;;;5450535;26;20336;-81
2024/04/11 00:26:26;;;;;;;3.43;1.40;;;5.90;99.90;;;;;;5451062;26;20365;-81
2024/04/11 00:28:53;;;;;;;2.60;1.33;;;6.00;99.90;;;;;;5451115;26;20313;-80
2024/04/11 00:31:18;;;;;;;2.60;1.30;;;6.20;99.90;;;;;;5448756;26;20341;-80
2024/04/11 00:33:54;;;;;;;3.08;1.40;;;6.10;99.90;;;;;;5450949;26;20783;-80
2024/04/11 00:36:22;;;;;;;2.33;1.17;;;6.20;99.90;;;;;;5450368;26;20325;-80
2024/04/11 00:38:48;;;;;;;3.40;1.58;;;6.40;99.90;;;;;;5450248;26;20329;-80
2024/04/11 00:41:14;;;;;;;3.27;1.73;;;6.20;99.90;;;;;;5451953;26;20443;-81
2024/04/11 00:43:39;;;;;;;2.70;1.70;;;6.20;99.90;;;;;;5442770;26;20350;-81
2024/04/11 00:46:06;;;;;;;2.87;1.43;;;8.90;99.90;;;;;;5412968;26;20319;-80
2024/04/11 00:48:31;;;;;;;1.90;1.40;;;6.40;99.90;;;;;;5444667;26;20373;-81
2024/04/11 00:50:58;;;;;;;4.50;1.70;;;6.00;99.90;;;;;;5449367;26;20685;-81
2024/04/11 00:53:24;;;;;;;2.40;1.40;;;6.10;99.90;;;;;;5448436;26;20332;-81
2024/04/11 00:55:51;;;;;;;3.25;1.90;;;6.20;99.90;;;;;;5451063;26;20328;-81
2024/04/11 00:58:16;;;;;;;3.67;2.00;;;6.70;99.90;;;;;;5466572;26;20411;-81
2024/04/11 01:00:42;;;;;;;2.67;1.63;;;5.90;99.90;;;;;;5455365;26;20336;-81
2024/04/11 01:03:08;;;;;;;2.60;1.40;;;6.00;99.90;;;;;;5450299;26;20321;-81
2024/04/11 01:05:34;;;;;;;3.05;1.80;;;6.00;99.90;;;;;;5450951;26;20348;-81
2024/04/11 01:08:02;;;;;;;1.52;1.10;;;5.50;99.90;;;;;;5448425;26;20879;-81
2024/04/11 01:10:27;;;;;;;2.53;1.33;;;5.60;99.90;;;;;;5450734;26;20860;-81
2024/04/11 01:16:15;;;;;;;3.47;1.50;;;6.00;99.90;;;;;;5455120;26;20424;-80
2024/04/11 01:18:40;;;;;;;1.88;1.30;;;5.90;99.90;;;;;;5490044;26;20837;-81
2024/04/11 01:21:06;;;;;;;2.42;1.45;;;5.90;99.90;;;;;;5488682;26;20409;-81
2024/04/11 01:23:31;;;;;;;3.13;1.70;;;5.80;99.90;;;;;;5454998;26;20431;-79
2024/04/11 01:25:57;;;;;;;2.90;1.50;;;5.70;99.90;;;;;;5454226;26;20693;-82
2024/04/11 01:28:22;;;;;;;4.00;1.40;;;6.00;99.90;;;;;;5454432;26;20324;-81
2024/04/11 01:30:48;;;;;;;3.10;1.50;;;5.50;99.90;;;;;;5441378;26;20371;-81
2024/04/11 01:33:14;;;;;;;4.93;1.60;;;7.30;99.90;;;;;;5449912;26;20313;-81
2024/04/11 01:35:40;;;;;;;5.10;1.55;;;5.50;99.90;;;;;;5453368;26;20410;-81
2024/04/11 01:38:05;;;;;;;3.23;1.63;;;5.60;99.90;;;;;;5450936;26;20820;-80
2024/04/11 01:40:36;;;;;;;3.90;1.70;;;5.60;99.90;;;;;;5451978;26;20324;-81
2024/04/11 01:43:02;;;;;;;4.28;1.83;;;5.70;99.90;;;;;;5451461;26;20325;-80
2024/04/11 01:45:28;;;;;;;3.50;2.10;;;5.40;99.90;;;;;;5453978;26;20320;-80
2024/04/11 01:47:54;;;;;;;2.20;1.40;;;5.40;99.90;;;;;;5454166;26;20434;-80
2024/04/11 01:50:21;;;;;;;3.95;1.58;;;5.40;99.90;;;;;;5451098;26;20324;-81
2024/04/11 01:52:47;;;;;;;2.30;1.47;;;5.20;99.90;;;;;;5453195;26;20412;-81
2024/04/11 01:55:12;;;;;;;3.20;1.73;;;5.10;99.90;;;;;;5453970;26;20325;-80
2024/04/11 01:57:38;;;;;;;5.50;1.70;;;5.40;99.90;;;;;;5452842;26;20350;-81
2024/04/11 02:00:12;;;;;;;3.03;1.60;;;5.40;99.90;;;;;;5456454;26;20317;-80
2024/04/11 02:02:44;;;;;;;2.70;1.70;;;5.80;99.90;;;;;;5456557;26;20373;-80
2024/04/11 02:05:11;;;;;;;3.85;1.65;;;5.60;99.90;;;;;;5456864;26;20365;-80
2024/04/11 02:07:38;;;;;;;4.05;1.75;;;5.60;99.90;;;;;;5454516;26;20329;-81
2024/04/11 02:10:05;;;;;;;2.42;1.73;;;5.40;99.90;;;;;;5470310;26;20738;-81
2024/04/11 02:12:31;;;;;;;2.65;1.77;;;5.70;99.90;;;;;;5448008;26;20383;-81
2024/04/11 02:14:56;;;;;;;4.47;2.03;;;5.50;99.90;;;;;;5454596;26;20808;-81
2024/04/11 02:17:22;;;;;;;3.40;1.60;;;5.70;99.90;;;;;;5451442;26;21070;-80
2024/04/11 02:19:48;;;;;;;4.07;1.70;;;5.40;99.90;;;;;;5454099;26;20431;-81
2024/04/11 02:22:17;;;;;;;3.47;1.75;;;5.80;99.90;;;;;;5425997;26;20331;-81
2024/04/11 02:24:43;;;;;;;2.70;1.58;;;5.80;99.90;;;;;;5445164;26;20346;-81
2024/04/11 02:27:08;;;;;;;3.00;1.70;;;5.60;99.90;;;;;;5452768;26;20317;-81
2024/04/11 02:29:34;;;;;;;2.95;2.15;;;5.60;99.90;;;;;;5451730;26;20357;-81
2024/04/11 02:31:59;;;;;;;3.78;1.80;;;5.70;99.90;;;;;;5453570;26;20325;-81
2024/04/11 02:34:28;;;;;;;5.22;1.90;;;5.80;99.90;;;;;;5451333;26;20747;-81
2024/04/11 02:36:54;;;;;;;6.00;1.90;;;5.90;99.90;;;;;;5450736;26;20399;-81
2024/04/11 02:39:20;;;;;;;2.90;1.80;;;5.60;99.90;;;;;;5453842;26;20321;-81
2024/04/11 02:41:46;;;;;;;2.20;1.70;;;5.60;99.90;;;;;;5451255;26;20324;-81
2024/04/11 02:44:11;;;;;;;3.90;1.55;;;5.70;99.90;;;;;;5450848;26;20329;-81
2024/04/11 02:46:39;;;;;;;2.65;1.95;;;5.50;99.90;;;;;;5452462;26;20329;-81
2024/04/11 02:49:05;;;;;;;2.20;1.60;;;5.50;99.90;;;;;;5451412;26;20404;-81
2024/04/11 02:51:30;;;;;;;4.82;1.83;;;5.20;99.90;;;;;;5452791;26;20373;-81
2024/04/11 02:53:57;;;;;;;2.50;1.67;;;5.20;99.90;;;;;;5451958;26;20328;-81
2024/04/11 02:56:23;;;;;;;4.53;1.75;;;5.20;99.90;;;;;;5452415;26;20325;-81
2024/04/11 02:58:49;;;;;;;4.10;1.80;;;5.30;99.90;;;;;;5451066;26;20373;-81
2024/04/11 03:01:15;;;;;;;3.43;1.70;;;5.20;99.90;;;;;;5452935;26;20699;-81
2024/04/11 03:03:40;;;;;;;3.10;1.63;;;5.10;99.90;;;;;;5453243;26;20419;-81
2024/04/11 03:06:17;;;;;;;2.50;1.60;;;5.30;99.90;;;;;;5449871;26;20333;-81
2024/04/11 03:08:44;;;;;;;3.90;1.77;;;;;;;;;;5502467;21;20351;-84
2024/04/11 03:11:11;;;;;;;1.92;1.60;;;;;;;;;;5384306;26;20937;-85
2024/04/11 03:13:37;;;;;;;3.67;1.90;;;;;;;;;;5386020;26;20323;-85
2024/04/11 03:16:06;;;;;;;3.22;1.83;;;;;;;;;;5398720;26;20379;-87
2024/04/11 03:18:32;;;;;;;3.40;1.77;;;;;;;;;;5405427;26;20383;-86
2024/04/11 03:20:59;;;;;;;2.20;2.00;;;5.40;99.90;;;;;;5435340;26;20315;-86
2024/04/11 03:23:27;;;;;;;3.97;2.17;;;5.60;99.90;;;;;;5402406;26;20335;-85
2024/04/11 03:25:53;;;;;;;2.30;1.90;;;5.40;99.90;;;;;;5402464;26;20336;-87
2024/04/11 03:28:19;;;;;;;3.10;1.90;;;5.60;99.90;;;;;;5436020;26;20387;-87
2024/04/11 03:31:04;;;;;;;5.88;1.90;;;4.70;99.90;;;;;;5410383;26;20362;-86
2024/04/11 03:33:29;;;;;;;2.13;1.90;;;;;;;;;;5400048;26;20340;-86
2024/04/11 03:35:56;;;;;;;2.95;2.08;;;6.00;99.90;;;;;;5407388;26;20430;-86
2024/04/11 03:38:24;;;;;;;3.35;1.60;;;5.60;99.90;;;;;;5378874;26;20353;-86
2024/04/11 03:41:20;;;;;;;3.40;1.75;;;5.40;99.90;;;;;;5387608;26;20327;-86
2024/04/11 03:43:46;;;;;;;2.80;2.08;;;5.30;99.90;;;;;;5382763;26;20351;-85
2024/04/11 03:46:21;;;;;;;4.30;1.90;;;5.50;99.90;;;;;;5369757;26;20335;-86
2024/04/11 03:48:55;;;;;;;3.42;1.80;;;5.20;99.90;;;;;;5365383;26;20350;-86
2024/04/11 03:51:22;;;;;;;4.03;2.38;;;5.10;99.90;;;;;;5394597;26;20330;-85
2024/04/11 03:53:56;;;;;;;2.90;1.90;;;5.20;99.90;;;;;;5372303;26;20342;-87
2024/04/11 03:56:23;;;;;;;2.97;2.03;;;5.10;99.90;;;;;;5400221;26;20331;-86
2024/04/11 03:58:52;;;;;;;3.28;2.40;;;5.10;99.90;;;;;;5403097;26;20464;-86
2024/04/11 04:01:21;;;;;;;2.90;2.00;;;4.90;99.90;;;;;;5368989;26;20340;-86
2024/04/11 04:03:49;;;;;;;2.42;2.10;;;4.90;99.90;;;;;;5398079;26;20347;-86
2024/04/11 04:06:16;;;;;;;3.73;2.17;;;5.00;99.90;;;;;;5368945;26;20851;-85
2024/04/11 04:08:46;;;;;;;2.42;2.22;;;5.00;99.90;;;;;;5408729;26;20327;-86
2024/04/11 04:11:22;;;;;;;3.38;2.10;;;4.60;99.90;;;;;;5371444;26;20330;-86
2024/04/11 04:13:50;;;;;;;2.80;2.10;;;4.80;99.90;;;;;;5399590;26;20366;-86
2024/04/11 04:16:16;;;;;;;3.30;2.20;;;4.80;99.90;;;;;;5370766;26;20323;-86
2024/04/11 04:18:46;;;;;;;3.50;2.00;;;4.90;99.90;;;;;;5374215;26;20343;-86
2024/04/11 04:21:13;;;;;;;3.35;2.30;;;5.30;99.90;;;;;;5372933;26;20863;-86
2024/04/11 04:23:42;;;;;;;3.13;2.35;;;4.60;99.90;;;;;;5369221;26;20706;-86
2024/04/11 04:26:08;;;;;;;4.90;2.30;;;4.90;99.90;;;;;;5366540;26;20725;-87
2024/04/11 04:28:39;;;;;;;2.73;2.50;;;4.90;99.90;;;;;;5401200;26;20335;-86
2024/04/11 04:31:20;;;;;;;3.00;2.10;;;4.80;99.90;;;;;;5368126;26;20346;-86
2024/04/11 04:33:47;;;;;;;3.63;2.20;;;4.80;99.90;;;;;;5396086;26;20432;-86
2024/04/11 04:36:16;;;;;;;2.90;2.47;;;;;;;;;;5399168;26;20343;-88
2024/04/11 04:38:44;;;;;;;3.97;2.25;;;5.00;99.90;;;;;;5396250;26;20846;-86
2024/04/11 04:41:13;;;;;;;4.30;2.67;;;5.50;99.90;;;;;;5403017;26;20441;-84
2024/04/11 04:43:41;;;;;;;5.93;2.90;;;4.70;99.90;;;;;;5395948;26;20326;-87
2024/04/11 04:46:07;;;;;;;5.18;2.70;;;5.10;99.90;;;;;;5381928;26;20330;-86
2024/04/11 04:48:32;;;;;;;4.32;2.75;;;5.40;99.90;;;;;;5379353;26;20335;-86
2024/04/11 04:50:59;;;;;;;3.78;2.70;;;;;;;;;;5418926;26;20327;-86
2024/04/11 04:53:25;;;;;;;3.42;2.60;;;5.30;99.90;;;;;;5390301;26;20319;-85
2024/04/11 04:55:52;;;;;;;4.20;2.50;;;5.30;99.90;;;;;;5395800;26;20319;-86
2024/04/11 04:58:18;;;;;;;5.03;2.63;;;;;;;;;;5418585;26;20664;-87
2024/04/11 05:00:44;;;;;;;3.67;2.50;;;5.00;99.90;;;;;;5396703;26;20483;-86
2024/04/11 05:03:10;;;;;;;2.63;2.30;;;4.70;99.90;;;;;;5354001;26;20381;-86
2024/04/11 05:05:40;;;;;;;4.80;2.88;;;;;;;;;;5352324;26;20398;-86
2024/04/11 05:08:13;;;;;;;4.30;2.53;;;4.90;99.90;;;;;;5351419;26;20334;-86
2024/04/11 05:10:40;;;;;;;5.45;2.70;;;5.10;99.90;;;;;;5355342;26;20754;-86
2024/04/11 05:13:09;;;;;;;3.63;2.33;;;5.00;99.90;;;;;;5400182;26;20362;-86
2024/04/11 05:15:38;;;;;;;4.70;2.20;;;5.00;99.90;;;;;;5389677;26;20486;-86
2024/04/11 05:18:05;;;;;;;4.40;2.00;;;5.00;99.90;;;;;;5387637;26;20346;-85
2024/04/11 05:20:33;;;;;;;4.63;2.40;;;5.10;99.90;;;;;;5368247;26;20326;-85
2024/04/11 05:22:59;;;;;;;3.22;2.00;;;4.80;99.90;;;;;;5362611;26;20330;-86
2024/04/11 05:25:26;;;;;;;5.43;3.17;;;5.00;99.90;;;;;;5425282;26;20343;-86
2024/04/11 05:27:53;;;;;;;4.50;2.60;;;5.00;99.90;;;;;;5424110;26;20392;-87
2024/04/11 05:30:19;;;;;;;3.63;2.10;;;5.00;99.90;;;;;;5424973;26;20419;-86
2024/04/11 05:32:46;;;;;;;4.00;2.20;;;5.00;99.90;;;;;;5422742;26;20339;-85
2024/04/11 05:35:14;;;;;;;3.25;2.10;;;4.70;99.90;;;;;;5391778;26;20380;-85
2024/04/11 05:37:40;;;;;;;4.40;2.00;;;5.00;99.90;;;;;;5354779;26;20346;-86
2024/04/11 05:40:08;;;;;;;3.47;2.38;;;4.90;99.90;;;;;;5385195;26;20728;-85
2024/04/11 05:42:35;;;;;;;3.10;2.40;;;5.10;99.90;;;;;;5386177;26;20374;-86
2024/04/11 05:45:02;;;;;;;3.05;2.35;;;4.90;99.90;;;;;;5356637;26;20399;-86
2024/04/11 05:47:31;;;;;;;4.75;2.30;;;5.20;99.90;;;;;;5353479;26;20380;-86
2024/04/11 05:49:57;;;;;;;2.30;2.10;;;5.40;99.90;;;;;;5383485;26;20960;-86
2024/04/11 05:52:30;;;;;;;4.53;2.25;;;5.30;99.90;;;;;;5384091;26;20334;-85
2024/04/11 05:54:56;;;;;;;4.38;2.60;;;5.20;99.90;;;;;;5367314;26;20343;-86
2024/04/11 05:57:22;;;;;;;2.50;2.30;;;5.30;99.90;;;;;;5418558;26;20407;-86
2024/04/11 05:59:48;;;;;;;2.70;2.10;;;;;;;;;;5385573;26;20339;-86
2024/04/11 06:02:13;;;;;;;2.90;2.30;;;5.50;99.90;;;;;;5419392;26;20347;-85
2024/04/11 06:04:41;;;;;;;3.30;2.30;;;5.50;99.90;;;;;;5386243;26;20328;-85
2024/04/11 06:07:08;;;;;;;3.40;2.30;;;5.50;99.90;;;;;;5375059;26;20326;-85
2024/04/11 06:09:34;;;;;;;2.72;2.33;;;5.80;99.90;;;;;;5387132;26;20334;-85
2024/04/11 06:12:00;;;;;;;3.50;2.30;;;5.80;99.90;;;;;;5387085;26;20491;-86
2024/04/11 06:14:26;;;;;;;4.32;2.40;;;5.60;99.90;;;;;;5416646;26;20387;-85
2024/04/11 06:16:52;;;;;;;2.58;2.30;;;5.50;99.90;;;;;;5417073;26;20339;-85
2024/04/11 06:19:17;;;;;;;4.17;2.60;;;5.70;99.90;;;;;;5413694;26;20569;-85
2024/04/11 06:21:47;;;;;;;3.90;2.92;;;5.70;99.90;;;;;;5384453;26;20374;-85
2024/04/11 06:24:12;;;;;;;4.80;3.50;;;5.90;99.90;;;;;;5381270;26;20339;-85
2024/04/11 06:26:38;;;;;;;5.97;3.05;;;5.70;99.90;;;;;;5417226;26;20324;-85
2024/04/11 06:29:07;;;;;;;5.30;2.40;;;6.30;99.90;;;;;;5417351;26;20339;-85
2024/04/11 06:31:34;;;;;;;3.22;2.58;;;6.20;99.90;;;;;;5386300;26;20371;-84
2024/04/11 06:33:59;;;;;;;5.00;2.50;;;7.60;99.90;;;;;;5386157;26;20328;-86
2024/04/11 06:36:25;;;;;;;5.03;2.60;;;6.40;99.90;;;;;;5417184;26;20332;-85
2024/04/11 06:38:51;;;;;;;6.10;2.65;;;6.70;99.90;;;;;;5386481;26;20376;-87
2024/04/11 06:41:43;;;;;;;3.55;2.50;;;;;;;;;;5386980;26;20335;-86
2024/04/11 06:44:16;;;;;;;4.90;2.35;;;6.90;99.90;;;;;;5409833;26;20387;-87
2024/04/11 06:46:44;;;;;;;4.53;2.70;;;;;;;;;;5383661;26;20331;-86
2024/04/11 06:49:11;;;;;;;2.60;2.40;;;7.00;99.90;;;;;;5417052;26;20403;-86
2024/04/11 06:51:37;;;;;;;6.25;2.80;;;7.20;99.90;;;;;;5402510;26;20410;-87
2024/04/11 06:54:03;;;;;;;6.60;2.60;;;7.10;99.90;;;;;;5351240;26;20330;-86
2024/04/11 06:56:29;;;;;;;4.20;3.10;;;;;;;;;;5382014;26;20330;-86
2024/04/11 06:58:55;;;;;;;4.90;2.20;;;7.60;99.90;;;;;;5350661;26;20374;-87
2024/04/11 07:01:21;;;;;;;3.30;2.20;;;;;;;;;;5382107;26;20334;-87
2024/04/11 07:03:53;;;;;;;3.50;2.47;;;;;;;;;;5384943;26;20389;-87
2024/04/11 07:06:22;;;;;;;4.40;2.80;;;7.80;99.90;;;;;;5360341;26;20378;-88
2024/04/11 07:08:58;;;;;;;2.95;2.65;;;7.60;99.90;;;;;;5353498;26;20338;-87
2024/04/11 07:11:27;;;;;;;6.17;2.50;;;8.10;99.90;;;;;;5380120;26;20375;-86
2024/04/11 07:13:56;;;;;;;2.78;1.90;;;7.80;99.90;;;;;;5378986;26;20326;-87
2024/04/11 07:16:26;;;;;;;3.75;2.47;;;8.10;99.90;;;;;;5380280;26;21263;-86
2024/04/11 07:18:57;;;;;;;3.92;2.10;;;8.60;99.90;;;;;;5381014;26;20461;-84
2024/04/11 07:21:25;;;;;;;3.88;2.40;;;8.40;99.90;;;;;;5350411;26;20913;-86
2024/04/11 07:23:55;;;;;;;4.35;2.40;;;8.80;99.90;;;;;;5364896;26;20662;-86
2024/04/11 07:26:30;;;;;;;3.90;2.10;;;8.80;99.90;;;;;;5416553;26;20383;-86
2024/04/11 07:28:59;;;;;;;3.08;1.92;;;9.00;99.90;;;;;;5416734;26;20766;-86
2024/04/11 07:31:25;;;;;;;2.70;1.70;;;8.80;99.90;;;;;;5385042;26;20336;-86
2024/04/11 07:33:50;;;;;;;2.88;1.70;;;9.40;99.90;;;;;;5417135;26;20347;-86
2024/04/11 07:36:25;;;;;;;3.35;1.95;;;9.40;99.90;;;;;;5417282;26;20360;-86
2024/04/11 07:38:52;;;;;;;4.78;2.30;;;;;;;;;;5386600;26;20343;-87
2024/04/11 07:41:20;;;;;;;4.27;2.20;;;9.90;99.90;;;;;;5422057;26;20349;-85
2024/04/11 07:43:52;;;;;;;8.00;3.00;;;9.40;99.90;;;;;;5387977;26;21047;-86
2024/04/11 07:46:23;;;;;;;6.55;2.90;;;10.20;99.90;;;;;;5384831;26;20378;-85
2024/04/11 07:48:51;;;;;;;4.57;2.30;;;10.00;99.90;;;;;;5385779;26;20386;-85
2024/04/11 07:51:21;;;;;;;3.95;2.80;;;10.50;99.90;;;;;;5385976;26;20374;-85
2024/04/11 07:53:48;;;;;;;4.63;2.70;;;10.30;99.90;;;;;;5417453;26;20831;-84
2024/04/11 07:56:20;;;;;;;6.10;2.20;;;9.90;99.90;;;;;;5385633;26;20727;-84
2024/04/11 07:58:55;;;;;;;3.60;2.13;;;10.10;99.90;;;;;;5417583;26;20445;-84
2024/04/11 08:01:30;;;;;;;4.53;2.47;;;9.90;99.90;;;;;;5421193;26;20382;-85
2024/04/11 08:03:57;;;;;;;5.83;2.43;;;10.40;99.90;;;;;;5436281;26;20438;-85
2024/04/11 08:06:23;;;;;;;6.53;2.50;;;10.30;99.90;;;;;;5399319;26;20568;-85
2024/04/11 08:08:48;;;;;;;3.83;2.10;;;10.70;99.90;;;;;;5384122;26;20378;-85
2024/04/11 08:11:15;;;;;;;3.78;1.98;;;10.40;99.90;;;;;;5416348;26;20324;-85
2024/04/11 08:13:43;;;;;;;5.80;2.00;;;10.50;99.90;;;;;;5416056;26;20331;-86
2024/04/11 08:16:10;;;;;;;3.47;2.30;;;10.40;99.90;;;;;;5386551;26;20336;-84
2024/04/11 08:18:37;;;;;;;6.10;2.30;;;10.50;99.90;;;;;;5416925;26;20732;-85
2024/04/11 08:21:07;;;;;;;7.00;2.40;;;;;;;;;;5417275;26;20327;-85
2024/04/11 08:23:36;;;;;;;5.20;2.45;;;10.10;99.90;;;;;;5386966;26;20339;-86
2024/04/11 08:26:02;;;;;;;5.32;2.53;;;11.30;99.90;;;;;;5422921;26;20693;-86
2024/04/11 08:28:27;;;;;;;5.83;2.30;;;10.90;99.90;;;;;;5389653;26;20504;-85
2024/04/11 08:30:53;;;;;;;5.13;2.30;;;;;;;;;;5421205;26;20750;-84
2024/04/11 08:33:20;;;;;;;3.58;2.40;;;11.00;99.90;;;;;;5392047;26;20336;-84
2024/04/11 08:35:47;;;;;;;5.70;2.20;;;11.40;99.90;;;;;;5423475;26;20373;-85
2024/04/11 08:38:15;;;;;;;3.43;2.00;;;;;;;;;;5397154;26;20411;-85
2024/04/11 08:40:44;;;;;;;3.38;2.20;;;11.40;99.90;;;;;;5418199;26;20363;-85
2024/04/11 08:43:15;;;;;;;5.43;2.35;;;11.50;99.90;;;;;;5421310;26;20418;-86
2024/04/11 08:45:44;;;;;;;5.27;2.03;;;11.50;99.90;;;;;;5424728;26;20331;-86
2024/04/11 08:48:10;;;;;;;4.38;2.20;;;12.00;99.90;;;;;;5424722;26;20362;-86
2024/04/11 08:50:44;;;;;;;4.90;2.13;;;11.50;99.90;;;;;;5394419;26;20335;-86
2024/04/11 08:53:10;;;;;;;5.75;2.45;;;11.60;99.90;;;;;;5422226;26;20327;-85
2024/04/11 08:55:36;;;;;;;7.85;2.10;;;12.00;99.90;;;;;;5422013;26;20359;-86
2024/04/11 08:58:02;;;;;;;3.17;2.00;;;11.90;99.90;;;;;;5390444;26;20421;-86
2024/04/11 09:00:30;;;;;;;4.88;2.00;;;13.70;99.90;;;;;;5387845;26;20323;-86
2024/04/11 09:02:56;;;;;;;6.22;2.30;;;12.40;99.90;;;;;;5419562;26;20348;-84
2024/04/11 09:05:22;;;;;;;3.17;2.40;;;12.00;99.90;;;;;;5388658;26;20676;-85
2024/04/11 09:07:47;;;;;;;3.60;1.73;;;12.00;99.90;;;;;;5386682;26;20336;-85
2024/04/11 09:10:16;;;;;;;8.53;2.60;;;12.30;99.90;;;;;;5419553;26;20462;-84
2024/04/11 09:12:42;;;;;;;5.83;2.10;;;;;;;;;;5419815;26;20434;-84
2024/04/11 09:15:08;;;;;;;6.22;2.00;;;12.90;99.90;;;;;;5388947;26;20378;-85
2024/04/11 09:17:45;;;;;;;3.20;2.00;;;11.10;99.90;;;;;;5419021;26;20459;-84
2024/04/11 09:20:15;;;;;;;4.10;2.10;;;12.80;99.90;;;;;;5420086;26;20385;-85
2024/04/11 09:22:59;;;;;;;5.38;2.45;;;12.20;99.90;;;;;;5420361;26;20327;-85
2024/04/11 09:25:30;;;;;;;3.20;1.95;;;12.40;99.90;;;;;;5383240;26;20382;-85
2024/04/11 09:27:58;;;;;;;2.58;2.00;;;12.90;99.90;;;;;;5352152;26;20874;-85
2024/04/11 09:30:34;;;;;;;4.28;2.58;;;12.90;99.90;;;;;;5352884;26;20342;-84
2024/04/11 09:33:04;;;;;;;4.10;2.40;;;13.00;99.90;;;;;;5352819;26;20774;-83
2024/04/11 09:35:41;;;;;;;3.78;2.10;;;;;;;;;;5353168;26;20326;-86
2024/04/11 09:38:13;;;;;;;3.40;2.42;;;13.10;99.90;;;;;;5380869;26;20375;-83
2024/04/11 09:40:50;;;;;;;2.35;2.05;;;13.20;99.90;;;;;;5352985;26;20377;-83
2024/04/11 09:43:17;;;;;;;6.90;3.30;;;13.20;99.90;;;;;;5352733;26;20830;-83
2024/04/11 09:45:50;;;;;;;4.30;2.10;;;13.60;99.90;;;;;;5355059;26;20334;-83
2024/04/11 09:48:21;;;;;;;4.03;1.98;;;13.90;99.90;;;;;;5383398;26;20320;-85
2024/04/11 09:50:48;;;;;;;4.10;2.10;;;13.50;99.90;;;;;;5384024;26;20321;-84
2024/04/11 09:53:25;;;;;;;3.65;2.00;;;13.50;99.90;;;;;;5383994;26;20367;-84
2024/04/11 09:55:53;;;;;;;4.20;2.03;;;13.40;99.90;;;;;;5384572;26;20328;-83
2024/04/11 09:58:20;;;;;;;7.60;2.60;;;13.40;99.90;;;;;;5352453;26;20374;-84
2024/04/11 10:00:48;;;;;;;2.38;1.60;;;16.10;99.90;;;;;;5384190;26;20330;-83
2024/04/11 10:03:19;;;;;;;2.58;1.75;;;13.40;99.90;;;;;;5352321;26;20380;-84
2024/04/11 10:05:50;;;;;;;5.05;2.10;;;13.30;99.90;;;;;;5383826;26;20365;-84
2024/04/11 10:08:36;;;;;;;2.85;1.90;;;13.90;99.90;;;;;;5383607;26;20330;-83
2024/04/11 10:11:10;;;;;;;2.47;2.08;;;13.80;99.90;;;;;;5384708;26;21055;-86
2024/04/11 10:13:40;;;;;;;6.13;2.03;;;13.90;99.90;;;;;;5383680;26;20369;-83
2024/04/11 10:16:06;;;;;;;2.63;1.70;;;13.80;99.90;;;;;;5382793;26;20374;-84
2024/04/11 10:18:41;;;;;;;2.50;1.90;;;13.70;99.90;;;;;;5352739;26;20437;-83
2024/04/11 10:21:11;;;;;;;4.20;2.90;;;14.10;99.90;;;;;;5352439;26;20403;-84
2024/04/11 10:23:38;;;;;;;2.30;2.00;;;13.80;99.90;;;;;;5364375;26;20472;-84
2024/04/11 10:26:06;;;;;;;5.60;2.13;;;13.50;99.90;;;;;;5418117;26;20327;-84
2024/04/11 10:28:41;;;;;;;4.93;2.20;;;14.30;99.90;;;;;;5417851;26;20795;-82
2024/04/11 10:31:11;;;;;;;3.10;2.20;;;14.70;99.90;;;;;;5420934;26;20455;-84
2024/04/11 10:33:47;;;;;;;3.83;2.60;;;13.90;99.90;;;;;;5418530;26;20402;-83
2024/04/11 10:36:13;;;;;;;5.72;2.72;;;16.40;99.90;;;;;;5387329;26;20335;-85
2024/04/11 10:38:41;;;;;;;3.85;2.70;;;14.60;99.90;;;;;;5388068;26;20355;-84
2024/04/11 10:41:08;;;;;;;4.35;2.75;;;14.00;99.90;;;;;;5418954;26;20415;-85
2024/04/11 10:43:36;;;;;;;6.25;3.10;;;14.30;99.90;;;;;;5418998;26;20446;-85
2024/04/11 10:46:05;;;;;;;6.00;2.88;;;17.20;99.90;;;;;;5387369;26;20336;-84
2024/04/11 10:48:31;;;;;;;3.97;2.50;;;14.10;99.90;;;;;;5418661;26;20945;-83
2024/04/11 10:51:00;;;;;;;4.03;2.60;;;17.00;99.90;;;;;;5419536;26;20323;-83
2024/04/11 10:53:25;;;;;;;6.03;2.67;;;14.60;99.90;;;;;;5418830;26;20327;-84
2024/04/11 10:55:55;;;;;;;4.60;2.53;;;15.00;99.90;;;;;;5419551;26;20354;-85
2024/04/11 10:58:28;;;;;;;3.58;3.00;;;14.50;99.90;;;;;;5419048;26;20364;-84
2024/04/11 11:03:42;;;;;;;5.53;2.70;;;15.50;99.90;;;;;;5419446;26;20799;-84
2024/04/11 11:06:12;;;;;;;4.63;2.40;;;14.70;99.90;;;;;;5387222;26;20757;-85
2024/04/11 11:08:43;;;;;;;6.57;2.20;;;15.30;99.90;;;;;;5385899;26;20339;-85
2024/04/11 11:11:11;;;;;;;3.10;2.10;;;15.20;99.90;;;;;;5385510;26;20433;-84
2024/04/11 11:13:40;;;;;;;2.70;1.95;;;15.50;99.90;;;;;;5416764;26;20366;-84
2024/04/11 11:16:07;;;;;;;4.40;2.10;;;15.30;99.90;;;;;;5417514;26;20328;-84
2024/04/11 11:18:39;;;;;;;3.03;2.50;;;15.90;99.90;;;;;;5421385;26;20329;-83
2024/04/11 11:21:07;;;;;;;6.18;2.50;;;15.50;99.90;;;;;;5416975;26;20411;-84
2024/04/11 11:23:34;;;;;;;4.38;2.35;;;16.10;99.90;;;;;;5373803;26;20341;-84
2024/04/11 11:26:01;;;;;;;3.30;2.10;;;;;;;;;;5381873;26;20773;-83
2024/04/11 11:28:27;;;;;;;3.13;2.40;;;16.60;99.90;;;;;;5349530;26;20338;-83
2024/04/11 11:30:56;;;;;;;3.47;1.90;;;16.80;99.90;;;;;;5381166;26;21002;-85
2024/04/11 11:33:23;;;;;;;5.25;2.38;;;16.10;99.90;;;;;;5350603;26;20393;-84
2024/04/11 11:35:50;;;;;;;4.93;1.90;;;16.80;99.90;;;;;;5383049;26;20414;-83
2024/04/11 11:38:15;;;;;;;3.33;2.20;;;18.30;99.90;;;;;;5351282;26;20355;-84
2024/04/11 11:40:46;;;;;;;5.15;2.20;;;18.20;99.90;;;;;;5354010;26;20322;-84
2024/04/11 11:43:16;;;;;;;4.40;2.30;;;18.60;99.90;;;;;;5383315;26;20874;-84
2024/04/11 11:46:17;;;;;;;6.53;2.67;;;18.90;99.90;;;;;;5384334;26;20338;-84
2024/04/11 11:48:31;;;;;;;4.30;2.00;;;20.20;99.90;;;;;;5382163;26;20452;-84
2024/04/11 11:51:05;;;;;;;3.53;1.77;;;20.80;99.90;;;;;;5381194;26;20331;-85
2024/04/11 11:53:34;;;;;;;3.30;2.00;;;20.90;99.90;;;;;;5382487;26;20417;-83
2024/04/11 11:56:05;;;;;;;3.05;1.70;;;20.20;99.90;;;;;;5352949;26;20330;-85
2024/04/11 11:58:43;;;;;;;3.78;2.08;;;19.30;99.90;;;;;;5380996;26;20334;-82
2024/04/11 12:03:58;;;;;;;2.63;1.87;;;19.80;99.90;;;;;;5382687;26;20828;-87
2024/04/11 12:06:23;;;;;;;5.43;2.17;;;19.40;99.90;;;;;;5351613;26;20326;-88
2024/04/11 12:08:50;;;;;;;6.28;2.40;;;18.90;99.90;;;;;;5357985;26;21507;-83
2024/04/11 12:11:16;;;;;;;4.30;2.70;;;20.10;99.90;;;;;;5380757;26;20326;-84
2024/04/11 12:13:42;;;;;;;2.97;2.50;;;18.40;99.90;;;;;;5381035;26;20375;-84
2024/04/11 12:16:08;;;;;;;3.78;2.10;;;18.70;99.90;;;;;;5381935;26;20451;-85
2024/04/11 12:18:34;;;;;;;3.67;2.35;;;18.70;99.90;;;;;;5383327;26;20760;-84
2024/04/11 12:21:02;;;;;;;5.28;2.17;;;20.70;99.90;;;;;;5352520;26;20335;-86
2024/04/11 12:23:28;;;;;;;4.32;2.20;;;18.30;99.90;;;;;;5392040;26;20351;-84
2024/04/11 12:26:03;;;;;;;3.40;2.17;;;18.40;99.90;;;;;;5385789;26;20433;-82
2024/04/11 12:28:29;;;;;;;3.20;2.70;;;18.90;99.90;;;;;;5385768;26;20351;-84
2024/04/11 12:31:01;;;;;;;6.50;2.35;;;20.40;99.90;;;;;;5417678;26;20855;-84
2024/04/11 12:33:27;;;;;;;4.95;2.20;;;21.20;99.90;;;;;;5445592;26;20383;-83
2024/04/11 12:35:55;;;;;;;3.45;1.90;;;18.10;99.90;;;;;;5417408;26;20422;-84
2024/04/11 12:38:24;;;;;;;3.83;1.90;;;18.80;99.90;;;;;;5416744;26;20947;-84
2024/04/11 12:40:50;;;;;;;4.25;2.20;;;19.50;99.90;;;;;;5386979;26;20323;-84
2024/04/11 12:43:17;;;;;;;5.33;2.10;;;21.60;99.90;;;;;;5385968;26;20487;-84
2024/04/11 12:45:52;;;;;;;2.30;1.70;;;20.10;99.90;;;;;;5418216;26;20343;-83
2024/04/11 12:48:21;;;;;;;4.00;2.10;;;19.00;99.90;;;;;;5416211;26;20415;-85
2024/04/11 12:50:52;;;;;;;5.75;1.88;;;19.20;99.90;;;;;;5386380;26;20446;-82
2024/04/11 12:53:21;;;;;;;3.75;1.80;;;19.10;99.90;;;;;;5385589;26;20371;-84
2024/04/11 12:55:52;;;;;;;4.03;2.13;;;19.00;99.90;;;;;;5415739;26;20335;-83
2024/04/11 12:58:19;;;;;;;3.60;1.70;;;18.70;99.90;;;;;;5383487;26;20724;-83
2024/04/11 13:00:57;;;;;;;4.40;1.90;;;20.40;99.90;;;;;;5416521;26;20923;-81
2024/04/11 13:03:52;;;;;;;3.90;1.80;;;18.40;99.90;;;;;;5415796;26;20336;-81
2024/04/11 13:06:29;;;;;;;4.80;2.17;;;19.70;1.00;;;;;;5445017;26;20379;-83
2024/04/11 13:09:10;;;;;;;3.60;1.73;;;18.80;1.00;;;;;;5444623;26;20372;-82
2024/04/11 13:11:39;;;;;;;5.10;1.90;;;18.70;1.00;;;;;;5419030;26;20515;-81
2024/04/11 13:14:17;;;;;;;4.13;1.80;;;18.60;1.00;;;;;;5390322;26;20343;-82
2024/04/11 13:17:00;;;;;;;2.65;1.80;;;19.40;1.00;;;;;;5421831;26;20839;-84